Time;durP1;ratioP1;P1;durP2;ratioP2;P2;SDS_P1;SDS_P2;PMS_P1;PMS_P2;Temp;Humidity;BMP_temperature;BMP_pressure;BME280_temperature;BME280_humidity;BME280_pressure;Samples;Min_cycle;Max_cycle;Signal;HPM_P1;HPM_P2
2021/07/05 00:02:11;;;;;;;;;;;;;;;-142.75;73.55;76215.97;5064564;28;19971;-79
2021/07/05 00:04:36;;;;;;;;;;;;;;;-142.75;73.31;76225.81;5073624;28;20300;-80
2021/07/05 00:07:02;;;;;;;;;;;;;;;-142.75;73.24;76223.84;5073733;28;20305;-80
2021/07/05 00:09:27;;;;;;;;;;;;;;;-142.75;73.19;76215.97;5063939;28;19923;-79
2021/07/05 00:11:52;;;;;;;;;;;;;;;-142.75;73.16;76215.97;5066029;28;19921;-80
2021/07/05 00:14:17;;;;;;;;;;;;;;;-142.75;72.91;76215.97;5064960;28;19931;-80
2021/07/05 00:16:42;;;;;;;;;;;;;;;-142.75;72.99;76212.03;5063936;28;19916;-80
2021/07/05 00:19:08;;;;;;;;;;;;;;;-142.75;72.70;76214.00;5083990;22;19924;-79
2021/07/05 00:21:33;;;;;;;;;;;;;;;-142.75;72.72;76214.00;5070555;28;20348;-82
2021/07/05 00:23:58;;;;;;;;;;;;;;;-142.75;72.52;76210.06;5072567;28;19939;-81
2021/07/05 00:26:23;;;;;;;;;;;;;;;-142.75;71.44;76223.84;5075035;28;19916;-79
2021/07/05 00:28:49;;;;;;;;;;;;;;;-142.75;71.89;76227.78;5074879;28;19939;-79
2021/07/05 00:31:14;;;;;;;;;;;;;;;-142.75;71.78;76239.59;5074246;28;19924;-80
2021/07/05 00:33:39;;;;;;;;;;;;;;;-142.75;71.79;76239.59;5073438;28;19917;-79
2021/07/05 00:36:04;;;;;;;;;;;;;;;-142.75;71.28;76247.47;5073988;28;20035;-79
2021/07/05 00:38:31;;;;;;;;;;;;;;;-142.75;70.64;76247.47;5074635;28;19916;-81
2021/07/05 00:40:56;;;;;;;;;;;;;;;-142.75;70.52;76245.50;5072198;28;20325;-80
2021/07/05 00:43:21;;;;;;;;;;;;;;;-142.75;70.07;76257.31;5073125;28;19917;-81
2021/07/05 00:45:46;;;;;;;;;;;;;;;-142.75;69.85;76259.28;5074019;28;19916;-81
2021/07/05 00:48:14;;;;;;;;;;;;;;;-142.75;70.35;76267.16;5074228;28;19916;-82
2021/07/05 00:50:40;;;;;;;;;;;;;;;-142.75;70.10;76269.13;5072904;28;20297;-83
2021/07/05 00:53:05;;;;;;;;;;;;;;;-142.75;69.92;76278.97;5072611;28;19924;-80
2021/07/05 00:55:32;;;;;;;;;;;;;;;-142.75;70.23;76282.91;5072968;28;19916;-81
2021/07/05 00:57:57;;;;;;;;;;;;;;;-142.75;70.52;76294.72;5073166;28;19974;-80
2021/07/05 01:00:24;;;;;;;;;;;;;;;-142.75;70.33;76302.59;5073054;28;19921;-80
2021/07/05 01:02:50;;;;;;;;;;;;;;;-142.75;70.55;76312.44;5072810;28;19924;-82
2021/07/05 01:05:16;;;;;;;;;;;;;;;-142.75;70.91;76318.34;5074167;28;19917;-80
2021/07/05 01:07:42;;;;;;;;;;;;;;;-142.75;71.24;76326.22;5073531;28;19924;-81
2021/07/05 01:10:07;;;;;;;;;;;;;;;-142.75;71.60;76318.34;5070459;28;19970;-81
2021/07/05 01:12:33;;;;;;;;;;;;;;;-142.75;71.59;76318.34;5074452;28;19920;-82
2021/07/05 01:14:59;;;;;;;;;;;;;;;-142.75;71.51;76308.50;5072429;28;19923;-82
2021/07/05 01:17:24;;;;;;;;;;;;;;;-142.75;71.67;76302.59;5074008;28;19924;-80
2021/07/05 01:19:50;;;;;;;;;;;;;;;-142.75;71.38;76298.66;5073797;28;19920;-78
2021/07/05 01:22:16;;;;;;;;;;;;;;;-142.75;71.26;76298.66;5073616;28;19923;-83
2021/07/05 01:24:42;;;;;;;;;;;;;;;-142.75;71.55;76294.72;5073072;28;19959;-81
2021/07/05 01:27:07;;;;;;;;;;;;;;;-142.75;71.81;76288.81;5072096;28;20001;-81
2021/07/05 01:29:33;;;;;;;;;;;;;;;-142.75;71.78;76290.78;5072267;28;19999;-80
2021/07/05 01:31:58;;;;;;;;;;;;;;;-142.75;71.38;76298.66;5072987;28;19920;-81
2021/07/05 01:34:24;;;;;;;;;;;;;;;-142.75;71.05;76288.81;5072915;28;20000;-80
2021/07/05 01:36:50;;;;;;;;;;;;;;;-142.75;70.97;76290.78;5073824;28;19916;-80
2021/07/05 01:39:15;;;;;;;;;;;;;;;-142.75;70.38;76294.72;5073947;28;20386;-79
2021/07/05 01:41:40;;;;;;;;;;;;;;;-142.75;69.66;76286.84;5073701;28;19955;-78
2021/07/05 01:44:05;;;;;;;;;;;;;;;-142.75;68.98;76294.72;5073457;28;19916;-80
2021/07/05 01:46:31;;;;;;;;;;;;;;;-142.75;69.41;76296.69;5071483;28;19916;-81
2021/07/05 01:48:56;;;;;;;;;;;;;;;-142.75;69.04;76288.81;5072121;28;20015;-81
2021/07/05 01:51:21;;;;;;;;;;;;;;;-142.75;69.17;76288.81;5073495;28;20409;-82
2021/07/05 01:53:46;;;;;;;;;;;;;;;-142.75;68.80;76296.69;5075893;28;19960;-80
2021/07/05 01:56:11;;;;;;;;;;;;;;;-142.75;68.95;76290.78;5076029;28;19977;-79
2021/07/05 01:58:37;;;;;;;;;;;;;;;-142.75;69.53;76294.72;5076637;28;19916;-80
2021/07/05 02:01:03;;;;;;;;;;;;;;;-142.75;69.43;76292.75;5077608;28;19927;-80
2021/07/05 02:03:28;;;;;;;;;;;;;;;-142.75;68.83;76292.75;5077299;28;19916;-81
2021/07/05 02:05:53;;;;;;;;;;;;;;;-142.75;68.31;76286.84;5077275;28;20297;-79
2021/07/05 02:08:18;;;;;;;;;;;;;;;-142.75;68.94;76282.91;5077180;28;19955;-81
2021/07/05 02:10:44;;;;;;;;;;;;;;;-142.75;69.11;76300.63;5075420;28;19940;-80
2021/07/05 02:13:12;;;;;;;;;;;;;;;-142.75;69.26;76302.59;5074522;28;19924;-80
2021/07/05 02:15:39;;;;;;;;;;;;;;;-142.75;69.39;76306.53;5076836;28;19951;-79
2021/07/05 02:18:04;;;;;;;;;;;;;;;-142.75;69.17;76302.59;5075248;28;19916;-80
2021/07/05 02:20:29;;;;;;;;;;;;;;;-142.75;69.25;76308.50;5075242;28;19931;-79
2021/07/05 02:22:56;;;;;;;;;;;;;;;-142.75;69.57;76308.50;5077539;28;19916;-82
2021/07/05 02:25:23;;;;;;;;;;;;;;;-142.75;69.57;76304.56;5077223;28;20374;-79
2021/07/05 02:27:48;;;;;;;;;;;;;;;-142.75;69.90;76310.47;5076707;28;19959;-79
2021/07/05 02:30:18;;;;;;;;;;;;;;;-142.75;69.96;76310.47;5076523;28;19916;-78
2021/07/05 02:32:44;;;;;;;;;;;;;;;-142.75;70.18;76316.38;5077046;28;19927;-79
2021/07/05 02:35:11;;;;;;;;;;;;;;;-142.75;70.55;76310.47;5076225;28;19970;-78
2021/07/05 02:37:37;;;;;;;;;;;;;;;-142.75;70.41;76314.41;5076424;28;19999;-78
2021/07/05 02:40:04;;;;;;;;;;;;;;;-142.75;70.36;76310.47;5077266;28;20369;-78
2021/07/05 02:42:29;;;;;;;;;;;;;;;-142.75;70.41;76312.44;5076888;28;19916;-81
2021/07/05 02:44:55;;;;;;;;;;;;;;;-142.75;70.92;76306.53;5076679;28;20290;-82
2021/07/05 02:47:20;;;;;;;;;;;;;;;-142.75;71.17;76314.41;5073470;28;19922;-79
2021/07/05 02:49:45;;;;;;;;;;;;;;;-142.75;70.57;76322.28;5075091;28;19928;-78
2021/07/05 02:52:10;;;;;;;;;;;;;;;-142.75;70.54;76326.22;5075252;28;20397;-80
2021/07/05 02:54:36;;;;;;;;;;;;;;;-142.75;71.18;76306.53;5072276;28;19916;-80
2021/07/05 02:57:01;;;;;;;;;;;;;;;-142.75;71.42;76310.47;5074967;28;19917;-81
2021/07/05 02:59:26;;;;;;;;;;;;;;;-142.75;71.32;76306.53;5074915;28;19916;-78
2021/07/05 03:01:51;;;;;;;;;;;;;;;-142.75;71.17;76314.41;5075271;28;20374;-79
2021/07/05 03:04:16;;;;;;;;;;;;;;;-142.75;70.94;76326.22;5075727;28;20449;-77
2021/07/05 03:06:42;;;;;;;;;;;;;;;-142.75;71.17;76330.16;5075830;28;19931;-78
2021/07/05 03:09:07;;;;;;;;;;;;;;;-142.75;71.41;76334.09;5071991;28;19916;-78
2021/07/05 03:11:32;;;;;;;;;;;;;;;-142.75;71.63;76326.22;5075230;28;19950;-79
2021/07/05 03:13:57;;;;;;;;;;;;;;;-142.75;71.56;76334.09;5075261;28;19956;-78
2021/07/05 03:16:22;;;;;;;;;;;;;;;-142.75;71.71;76334.09;5074932;28;19920;-80
2021/07/05 03:18:47;;;;;;;;;;;;;;;-142.75;71.74;76330.16;5074187;28;19925;-80
2021/07/05 03:21:13;;;;;;;;;;;;;;;-142.75;71.29;76341.97;5075311;28;19970;-78
2021/07/05 03:23:38;;;;;;;;;;;;;;;-142.75;71.24;76345.91;5073289;28;19923;-78
2021/07/05 03:26:03;;;;;;;;;;;;;;;-142.75;71.26;76341.97;5073146;28;19920;-80
2021/07/05 03:28:28;;;;;;;;;;;;;;;-142.75;71.39;76345.91;5074869;28;19916;-79
2021/07/05 03:30:54;;;;;;;;;;;;;;;-142.75;71.75;76345.91;5074227;28;20405;-78
2021/07/05 03:33:19;;;;;;;;;;;;;;;-142.75;71.52;76347.84;5075196;28;19916;-79
2021/07/05 03:35:45;;;;;;;;;;;;;;;-142.75;71.41;76353.78;5074044;28;20378;-81
2021/07/05 03:38:12;;;;;;;;;;;;;;;-142.75;71.05;76353.78;5074554;28;19920;-81
2021/07/05 03:40:38;;;;;;;;;;;;;;;-142.75;70.49;76355.72;5073070;28;20023;-81
2021/07/05 03:43:03;;;;;;;;;;;;;;;-142.75;70.73;76351.81;5074473;28;19951;-79
2021/07/05 03:45:30;;;;;;;;;;;;;;;-142.75;70.93;76349.81;5072685;28;20008;-80
2021/07/05 03:47:56;;;;;;;;;;;;;;;-142.75;70.45;76355.72;5075111;28;20462;-78
2021/07/05 03:50:21;;;;;;;;;;;;;;;-142.75;70.16;76355.72;5075123;28;19921;-78
2021/07/05 03:52:47;;;;;;;;;;;;;;;-142.75;69.87;76357.69;5073399;28;19917;-79
2021/07/05 03:55:13;;;;;;;;;;;;;;;-142.75;70.06;76361.63;5074930;28;19920;-81
2021/07/05 03:57:39;;;;;;;;;;;;;;;-142.75;69.53;76371.47;5072922;28;19962;-79
2021/07/05 04:00:07;;;;;;;;;;;;;;;-142.75;70.00;76365.56;5072790;28;19960;-78
2021/07/05 04:02:32;;;;;;;;;;;;;;;-142.75;69.81;76361.63;5072387;28;19917;-79
2021/07/05 04:04:57;;;;;;;;;;;;;;;-142.75;69.62;76373.44;5074189;28;19935;-78
2021/07/05 04:07:22;;;;;;;;;;;;;;;-142.75;69.64;76367.53;5075890;28;19923;-79
2021/07/05 04:09:48;;;;;;;;;;;;;;;-142.75;69.38;76373.44;5075281;28;20077;-80
2021/07/05 04:12:13;;;;;;;;;;;;;;;-142.75;69.26;76373.44;5076643;28;19921;-79
2021/07/05 04:14:39;;;;;;;;;;;;;;;-142.75;68.86;76379.34;5075997;28;20125;-80
2021/07/05 04:17:04;;;;;;;;;;;;;;;-142.75;69.57;76379.34;5073600;28;19916;-79
2021/07/05 04:19:29;;;;;;;;;;;;;;;-142.75;70.09;76375.41;5073088;28;20000;-79
2021/07/05 04:21:55;;;;;;;;;;;;;;;-142.75;69.81;76367.53;5071414;28;20482;-79
2021/07/05 04:24:20;;;;;;;;;;;;;;;-142.75;69.85;76363.59;5074857;28;20536;-82
2021/07/05 04:26:45;;;;;;;;;;;;;;;-142.75;70.00;76357.69;5073504;28;19987;-80
2021/07/05 04:29:10;;;;;;;;;;;;;;;-142.75;69.23;76361.63;5072900;28;19916;-79
2021/07/05 04:31:36;;;;;;;;;;;;;;;-142.75;69.48;76365.56;5071743;28;19924;-81
2021/07/05 04:34:01;;;;;;;;;;;;;;;-142.75;69.39;76371.47;5074245;28;19916;-78
2021/07/05 04:36:26;;;;;;;;;;;;;;;-142.75;69.47;76365.56;5072910;28;20373;-79
2021/07/05 04:38:51;;;;;;;;;;;;;;;-142.75;69.55;76357.69;5073081;28;20061;-79
2021/07/05 04:41:16;;;;;;;;;;;;;;;-142.75;69.84;76361.63;5073582;28;19916;-79
2021/07/05 04:43:42;;;;;;;;;;;;;;;-142.75;69.98;76361.63;5073525;28;19926;-77
2021/07/05 04:46:08;;;;;;;;;;;;;;;-142.75;69.88;76361.63;5073474;28;19917;-80
2021/07/05 04:48:33;;;;;;;;;;;;;;;-142.75;69.67;76363.59;5072327;28;20393;-78
2021/07/05 04:51:00;;;;;;;;;;;;;;;-142.75;69.81;76361.63;5073006;28;19920;-80
2021/07/05 04:53:26;;;;;;;;;;;;;;;-142.75;69.72;76361.63;5073664;28;19969;-77
2021/07/05 04:55:51;;;;;;;;;;;;;;;-142.75;69.04;76361.63;5072491;28;19920;-79
2021/07/05 04:58:16;;;;;;;;;;;;;;;-142.75;69.55;76361.63;5072605;28;20344;-80
2021/07/05 05:00:42;;;;;;;;;;;;;;;-142.75;69.09;76357.69;5073284;28;19924;-79
2021/07/05 05:03:07;;;;;;;;;;;;;;;-142.75;69.30;76365.56;5070871;28;19956;-80
2021/07/05 05:05:33;;;;;;;;;;;;;;;-142.75;69.65;76361.63;5072592;28;19942;-77
2021/07/05 05:07:59;;;;;;;;;;;;;;;-142.75;69.38;76361.63;5074245;28;19979;-78
2021/07/05 05:10:24;;;;;;;;;;;;;;;-142.75;69.03;76361.63;5073347;28;19970;-79
2021/07/05 05:12:50;;;;;;;;;;;;;;;-142.75;69.24;76365.56;5072714;28;19923;-80
2021/07/05 05:15:17;;;;;;;;;;;;;;;-142.75;69.34;76357.69;5074480;28;19917;-79
2021/07/05 05:17:43;;;;;;;;;;;;;;;-142.75;69.60;76351.81;5073258;28;19925;-78
2021/07/05 05:20:09;;;;;;;;;;;;;;;-142.75;69.69;76343.94;5073475;28;19916;-78
2021/07/05 05:22:35;;;;;;;;;;;;;;;-142.75;69.21;76341.97;5073620;28;20427;-79
2021/07/05 05:25:00;;;;;;;;;;;;;;;-142.75;69.36;76341.97;5073689;28;19916;-80
2021/07/05 05:27:25;;;;;;;;;;;;;;;-142.75;69.69;76338.03;5072643;28;19917;-77
2021/07/05 05:29:50;;;;;;;;;;;;;;;-142.75;69.63;76332.13;5072747;28;19927;-79
2021/07/05 05:32:16;;;;;;;;;;;;;;;-142.75;68.82;76326.22;5073419;28;19973;-81
2021/07/05 05:34:41;;;;;;;;;;;;;;;-142.75;68.41;76338.03;5073077;28;19917;-78
2021/07/05 05:37:06;;;;;;;;;;;;;;;-142.75;69.01;76330.16;5071808;28;20000;-78
2021/07/05 05:39:31;;;;;;;;;;;;;;;-142.75;68.52;76326.22;5073219;28;19916;-77
2021/07/05 05:41:56;;;;;;;;;;;;;;;-142.75;68.67;76322.28;5070686;28;19917;-78
2021/07/05 05:44:22;;;;;;;;;;;;;;;-142.75;68.63;76326.22;5071779;28;19920;-79
2021/07/05 05:46:47;;;;;;;;;;;;;;;-142.75;68.64;76330.16;5073514;28;19916;-78
2021/07/05 05:49:12;;;;;;;;;;;;;;;-142.75;68.66;76320.31;5072414;28;19925;-79
2021/07/05 05:51:37;;;;;;;;;;;;;;;-142.75;68.82;76314.41;5072628;28;20440;-78
2021/07/05 05:54:04;;;;;;;;;;;;;;;-142.75;68.83;76304.56;5071474;28;19927;-80
2021/07/05 05:56:32;;;;;;;;;;;;;;;-142.75;68.71;76243.53;5072996;28;19940;-79
2021/07/05 05:59:00;;;;;;;;;;;;;;;-142.75;67.60;76164.81;5073314;28;19928;-81
2021/07/05 06:01:27;;;;;;;;;;;;;;;-142.75;65.96;76091.97;5071516;28;20303;-80
2021/07/05 06:03:53;;;;;;;;;;;;;;;-142.75;63.41;76095.91;5071828;28;19942;-80
2021/07/05 06:06:18;;;;;;;;;;;;;;;-142.75;63.58;76080.16;5073528;28;19916;-80
2021/07/05 06:08:43;;;;;;;;;;;;;;;-142.75;64.12;76074.25;5071165;28;19917;-78
2021/07/05 06:11:08;;;;;;;;;;;;;;;-142.75;63.72;76068.38;5070569;28;19967;-79
2021/07/05 06:13:33;;;;;;;;;;;;;;;-142.75;63.26;76060.50;5070967;28;20386;-79
2021/07/05 06:15:59;;;;;;;;;;;;;;;-142.75;62.63;76058.53;5071555;28;19955;-78
2021/07/05 06:18:24;;;;;;;;;;;;;;;-142.75;61.93;76003.41;5085167;22;20279;-81
2021/07/05 06:20:49;;;;;;;;;;;;;;;-142.75;61.79;75964.03;5046563;28;19928;-81
2021/07/05 06:23:21;;;;;;;;;;;;;;;-142.75;61.49;75962.09;5033305;28;19971;-80
2021/07/05 06:25:46;;;;;;;;;;;;;;;-142.75;61.33;75991.59;5042679;28;19917;-81
2021/07/05 06:28:12;;;;;;;;;;;;;;;-142.75;60.98;75995.53;5032027;28;19917;-79
2021/07/05 06:30:37;;;;;;;;;;;;;;;-142.75;61.27;76030.97;5042038;28;19943;-80
2021/07/05 06:33:03;;;;;;;;;;;;;;;-142.75;61.31;76064.44;5033114;28;20079;-80
2021/07/05 06:35:28;;;;;;;;;;;;;;;-142.75;62.56;76056.56;5049714;28;19956;-81
2021/07/05 06:37:53;;;;;;;;;;;;;;;-142.75;62.32;76046.72;5052455;28;19924;-79
2021/07/05 06:40:19;;;;;;;;;;;;;;;-142.75;61.69;75983.72;5043392;28;19932;-80
2021/07/05 06:42:44;;;;;;;;;;;;;;;-142.75;60.69;75975.84;5035931;28;20161;-80
2021/07/05 06:45:10;;;;;;;;;;;;;;;-142.75;60.42;75993.56;5053842;28;20366;-80
2021/07/05 06:47:35;;;;;;;;;;;;;;;-142.75;61.59;75967.97;5035455;28;20346;-79
2021/07/05 06:50:00;;;;;;;;;;;;;;;-142.75;59.38;75964.03;5046606;28;19939;-79
2021/07/05 06:52:27;;;;;;;;;;;;;;;-142.75;58.90;75944.38;5035174;28;19917;-81
2021/07/05 06:54:53;;;;;;;;;;;;;;;-142.75;58.51;75948.31;5036556;28;20390;-81
2021/07/05 06:57:30;;;;;;;;;;;;;;;-142.75;59.29;75871.53;5045544;28;19986;-81
2021/07/05 06:59:56;;;;;;;;;;;;;;;-142.75;56.43;75798.72;5033366;28;20390;-82
2021/07/05 07:02:21;;;;;;;;;;;;;;;-142.75;57.42;75798.72;5043551;28;19916;-81
2021/07/05 07:04:46;;;;;;;;;;;;;;;-142.75;57.17;75828.25;5035049;28;20436;-80
2021/07/05 07:07:12;;;;;;;;;;;;;;;-142.75;57.80;75863.66;5043785;28;19996;-81
2021/07/05 07:09:37;;;;;;;;;;;;;;;-142.75;57.38;75786.91;5034939;28;20047;-82
2021/07/05 07:12:02;;;;;;;;;;;;;;;-142.75;55.82;75771.16;5046806;28;19916;-81
2021/07/05 07:14:27;;;;;;;;;;;;;;;-142.75;56.08;75712.13;5035142;28;19981;-82
2021/07/05 07:17:02;;;;;;;;;;;;;;;-142.75;55.17;75659.00;5044558;28;20081;-82
2021/07/05 07:19:27;;;;;;;;;;;;;;;-142.75;54.63;75666.88;5036528;28;19917;-82
2021/07/05 07:21:52;;;;;;;;;;;;;;;-142.75;54.66;75660.97;5034634;28;19995;-80
2021/07/05 07:24:18;;;;;;;;;;;;;;;-142.75;54.90;75668.84;5052857;28;19917;-80
2021/07/05 07:26:43;;;;;;;;;;;;;;;-142.75;52.95;75710.16;5034358;28;19916;-82
2021/07/05 07:29:09;;;;;;;;;;;;;;;-142.75;54.42;75721.97;5042490;28;19928;-80
2021/07/05 07:31:34;;;;;;;;;;;;;;;-142.75;54.85;75690.47;5050176;28;19920;-82
2021/07/05 07:33:59;;;;;;;;;;;;;;;-142.75;54.83;75700.31;5043556;28;19921;-80
2021/07/05 07:36:26;;;;;;;;;;;;;;;-142.75;55.09;75678.66;5044848;28;19920;-82
2021/07/05 07:38:53;;;;;;;;;;;;;;;-142.75;53.48;75649.16;5035621;28;20034;-80
2021/07/05 07:41:23;;;;;;;;;;;;;;;-142.75;52.30;75666.88;5035773;28;19917;-82
2021/07/05 07:43:49;;;;;;;;;;;;;;;-142.75;53.31;75611.75;5043958;28;19924;-82
2021/07/05 07:46:14;;;;;;;;;;;;;;;-142.75;51.96;75588.16;5043965;28;19921;-82
2021/07/05 07:48:39;;;;;;;;;;;;;;;-142.75;51.54;75515.31;5035317;28;19920;-82
2021/07/05 07:51:04;;;;;;;;;;;;;;;-142.75;51.08;75546.81;5034840;28;20079;-81
2021/07/05 07:53:30;;;;;;;;;;;;;;;-142.75;51.23;75527.13;5047232;28;19931;-82
2021/07/05 07:55:55;;;;;;;;;;;;;;;-142.75;49.95;75562.56;5045479;28;19917;-82
2021/07/05 07:58:20;;;;;;;;;;;;;;;-142.75;51.27;75460.22;5054113;28;20344;-81
2021/07/05 08:00:46;;;;;;;;;;;;;;;-142.75;49.58;75363.78;5049780;28;19923;-80
2021/07/05 08:03:12;;;;;;;;;;;;;;;-142.75;49.42;75432.69;5034653;28;19943;-84
2021/07/05 08:05:38;;;;;;;;;;;;;;;-142.75;48.88;75413.00;5040700;28;20012;-84
2021/07/05 08:08:03;;;;;;;;;;;;;;;-142.75;50.03;75468.09;5050326;28;20642;-81
2021/07/05 08:10:30;;;;;;;;;;;;;;;-142.75;49.99;75503.53;5043796;28;19923;-81
2021/07/05 08:12:56;;;;;;;;;;;;;;;-142.75;50.23;75536.97;5041559;28;20028;-79
2021/07/05 08:15:21;;;;;;;;;;;;;;;-142.75;49.97;75566.50;5048430;28;19956;-81
2021/07/05 08:17:46;;;;;;;;;;;;;;;-142.75;51.21;75592.09;5037407;28;19927;-80
2021/07/05 08:20:12;;;;;;;;;;;;;;;-142.75;50.06;75633.41;5042991;28;19916;-81
2021/07/05 08:22:38;;;;;;;;;;;;;;;-142.75;51.15;75660.97;5043473;28;19924;-81
2021/07/05 08:25:04;;;;;;;;;;;;;;;-142.75;51.33;75688.50;5042125;28;19917;-81
2021/07/05 08:27:29;;;;;;;;;;;;;;;-142.75;52.08;75712.13;5042276;28;19917;-81
2021/07/05 08:29:56;;;;;;;;;;;;;;;-142.75;53.42;75702.28;5046741;28;19947;-82
2021/07/05 08:32:21;;;;;;;;;;;;;;;-142.75;51.40;75631.44;5042559;28;19964;-81
2021/07/05 08:34:46;;;;;;;;;;;;;;;-142.75;50.99;75578.31;5046432;28;19982;-82
2021/07/05 08:37:12;;;;;;;;;;;;;;;-142.75;50.21;75586.19;5043115;28;20373;-82
2021/07/05 08:39:38;;;;;;;;;;;;;;;-142.75;51.30;75647.19;5045518;28;20012;-82
2021/07/05 08:42:04;;;;;;;;;;;;;;;-142.75;51.26;75651.13;5042933;28;19916;-81
2021/07/05 08:44:29;;;;;;;;;;;;;;;-142.75;52.68;75668.84;5052976;28;20024;-80
2021/07/05 08:46:55;;;;;;;;;;;;;;;-142.75;52.29;75668.84;5052447;28;20350;-81
2021/07/05 08:49:21;;;;;;;;;;;;;;;-142.75;52.31;75643.25;5033060;28;19955;-81
2021/07/05 08:51:46;;;;;;;;;;;;;;;-142.75;53.60;75625.53;5044023;28;19921;-80
2021/07/05 08:54:11;;;;;;;;;;;;;;;-142.75;51.66;75582.25;5035384;28;20272;-82
2021/07/05 08:56:36;;;;;;;;;;;;;;;-142.75;50.14;75560.59;5051857;28;19964;-81
2021/07/05 08:59:02;;;;;;;;;;;;;;;-142.75;48.69;75438.56;5033117;28;19917;-81
2021/07/05 09:01:27;;;;;;;;;;;;;;;-142.75;46.93;75369.69;5033811;28;19943;-81
2021/07/05 09:03:52;;;;;;;;;;;;;;;-142.75;48.10;75369.69;5044979;28;19917;-80
2021/07/05 09:06:19;;;;;;;;;;;;;;;-142.75;49.00;75389.38;5049731;28;20394;-80
2021/07/05 09:09:04;;;;;;;;;;;;;;;-142.75;47.27;75430.72;5044725;28;20286;-81
2021/07/05 09:11:37;;;;;;;;;;;;;;;-142.75;47.11;75452.34;5030210;28;19917;-79
2021/07/05 09:14:09;;;;;;;;;;;;;;;-142.75;49.19;75470.06;5042689;28;19920;-81
2021/07/05 09:16:35;;;;;;;;;;;;;;;-142.75;49.38;75411.03;5034462;28;19917;-79
2021/07/05 09:19:01;;;;;;;;;;;;;;;-142.75;45.94;75320.50;5051431;28;19938;-80
2021/07/05 09:21:30;;;;;;;;;;;;;;;-142.75;45.81;75273.28;5032966;28;19925;-81
2021/07/05 09:24:01;;;;;;;;;;;;;;;-142.75;45.02;75257.53;5046597;28;19920;-81
2021/07/05 09:26:28;;;;;;;;;;;;;;;-142.75;45.68;75277.22;5050359;28;19917;-80
2021/07/05 09:28:54;;;;;;;;;;;;;;;-142.75;45.14;75210.31;5049399;28;20282;-82
2021/07/05 09:31:29;;;;;;;;;;;;;;;-142.75;45.57;75165.03;5050417;28;20003;-79
2021/07/05 09:33:54;;;;;;;;;;;;;;;-142.75;44.64;75184.72;5042766;28;19925;-80
2021/07/05 09:36:21;;;;;;;;;;;;;;;-142.75;42.64;75224.09;5033230;28;19978;-81
2021/07/05 09:38:46;;;;;;;;;;;;;;;-142.75;45.05;75338.22;5049890;28;19917;-79
2021/07/05 09:41:16;;;;;;;;;;;;;;;-142.75;45.97;75405.13;5037852;28;20485;-79
2021/07/05 09:43:42;;;;;;;;;;;;;;;-142.75;47.19;75450.38;5033455;28;19939;-79
2021/07/05 09:46:09;;;;;;;;;;;;;;;-142.75;48.00;75440.53;5031801;28;19917;-79
2021/07/05 09:48:41;;;;;;;;;;;;;;;-142.75;46.86;75422.84;5033740;28;19925;-79
2021/07/05 09:51:06;;;;;;;;;;;;;;;-142.75;47.49;75383.47;5049843;28;19916;-79
2021/07/05 09:53:40;;;;;;;;;;;;;;;-142.75;44.73;75348.06;5050481;28;19928;-78
2021/07/05 09:56:18;;;;;;;;;;;;;;;-142.75;45.75;75355.94;5045230;28;19949;-80
2021/07/05 09:58:43;;;;;;;;;;;;;;;-142.75;46.13;75373.63;5041655;28;20371;-79
2021/07/05 10:01:08;;;;;;;;;;;;;;;-142.75;48.23;75413.00;5040439;28;19917;-80
2021/07/05 10:03:35;;;;;;;;;;;;;;;-142.75;48.30;75495.66;5032174;28;19923;-79
2021/07/05 10:06:19;;;;;;;;;;;;;;;-142.75;48.95;75523.19;5042320;28;19917;-79
2021/07/05 10:08:49;;;;;;;;;;;;;;;-142.75;49.58;75507.47;5031516;28;19925;-78
2021/07/05 10:11:14;;;;;;;;;;;;;;;-142.75;49.25;75479.91;5032830;28;19924;-79
2021/07/05 10:13:40;;;;;;;;;;;;;;;-142.75;48.04;75564.53;5052098;28;19920;-79
2021/07/05 10:16:10;;;;;;;;;;;;;;;-142.75;49.35;75544.84;5036340;28;19916;-79
2021/07/05 10:18:35;;;;;;;;;;;;;;;-142.75;48.66;75546.81;5050192;28;19923;-80
2021/07/05 10:21:01;;;;;;;;;;;;;;;-142.75;48.93;75572.41;5035660;28;20008;-81
2021/07/05 10:23:27;;;;;;;;;;;;;;;-142.75;50.11;75601.91;5037078;28;19920;-79
2021/07/05 10:25:52;;;;;;;;;;;;;;;-142.75;51.43;75627.50;5051920;28;19931;-80
2021/07/05 10:28:18;;;;;;;;;;;;;;;-142.75;51.97;75641.28;5043940;28;19971;-79
2021/07/05 10:30:44;;;;;;;;;;;;;;;-142.75;51.90;75660.97;5044998;28;20012;-80
2021/07/05 10:33:09;;;;;;;;;;;;;;;-142.75;52.31;75700.31;5035491;28;19957;-78
2021/07/05 10:35:39;;;;;;;;;;;;;;;-142.75;53.50;75737.72;5035866;28;19928;-79
2021/07/05 10:38:06;;;;;;;;;;;;;;;-142.75;54.53;75792.81;5040937;28;19925;-78
2021/07/05 10:40:42;;;;;;;;;;;;;;;-142.75;54.63;75757.41;5036060;28;19917;-79
2021/07/05 10:43:09;;;;;;;;;;;;;;;-142.75;53.87;75761.34;5035791;28;19917;-78
2021/07/05 10:45:39;;;;;;;;;;;;;;;-142.75;54.58;75806.59;5034988;28;20378;-78
2021/07/05 10:48:05;;;;;;;;;;;;;;;-142.75;53.44;75781.00;5049188;28;19921;-79
2021/07/05 10:50:33;;;;;;;;;;;;;;;-142.75;53.79;75759.38;5045527;28;19990;-77
2021/07/05 10:52:59;;;;;;;;;;;;;;;-142.75;54.01;75696.38;5044462;28;19921;-81
2021/07/05 10:55:36;;;;;;;;;;;;;;;-142.75;52.35;75735.75;5040520;28;20023;-80
2021/07/05 10:58:02;;;;;;;;;;;;;;;-142.75;53.37;75704.25;5040036;28;19972;-79
2021/07/05 11:00:47;;;;;;;;;;;;;;;-142.75;53.39;75696.38;5046513;28;19925;-78
2021/07/05 11:03:32;;;;;;;;;;;;;;;-142.75;52.31;75720.00;5049769;28;20453;-79
2021/07/05 11:06:10;;;;;;;;;;;;;;;-142.75;51.93;75737.72;5052359;28;19917;-79
2021/07/05 11:09:08;;;;;;;;;;;;;;;-142.75;52.55;75741.66;5034675;28;19928;-79
2021/07/05 11:11:33;;;;;;;;;;;;;;;-142.75;52.38;75755.44;5052842;28;19927;-78
2021/07/05 11:14:16;;;;;;;;;;;;;;;-142.75;53.30;75763.28;5033493;28;20011;-79
2021/07/05 11:16:53;;;;;;;;;;;;;;;-142.75;53.08;75749.53;5048450;28;19966;-79
2021/07/05 11:19:31;;;;;;;;;;;;;;;-142.75;54.63;75763.28;5035268;28;19964;-78
2021/07/05 11:21:58;;;;;;;;;;;;;;;-142.75;54.98;75753.47;5035155;28;19916;-79
2021/07/05 11:24:35;;;;;;;;;;;;;;;-142.75;54.44;75777.06;5051297;28;19962;-79
2021/07/05 11:27:19;;;;;;;;;;;;;;;-142.75;55.47;75838.09;5036169;28;19944;-78
2021/07/05 11:29:45;;;;;;;;;;;;;;;-142.75;57.94;75926.66;5035378;28;19978;-80
2021/07/05 11:32:10;;;;;;;;;;;;;;;-142.75;59.05;75956.19;5036031;28;19959;-79
2021/07/05 11:34:37;;;;;;;;;;;;;;;-142.75;59.11;75950.28;5035093;28;20390;-80
2021/07/05 11:37:14;;;;;;;;;;;;;;;-142.75;58.76;75936.50;5032172;28;20003;-79
2021/07/05 11:39:41;;;;;;;;;;;;;;;-142.75;58.46;75950.28;5040146;28;19939;-79
2021/07/05 11:42:07;;;;;;;;;;;;;;;-142.75;59.47;75960.13;5043318;28;20012;-78
2021/07/05 11:44:48;;;;;;;;;;;;;;;-142.75;60.25;75987.66;5032968;28;19992;-77
2021/07/05 11:47:32;;;;;;;;;;;;;;;-142.75;61.21;76007.34;5051968;28;19917;-79
2021/07/05 11:50:16;;;;;;;;;;;;;;;-142.75;61.87;76030.97;5035290;28;19916;-79
2021/07/05 11:52:45;;;;;;;;;;;;;;;-142.75;62.83;76019.16;5034895;28;20014;-78
2021/07/05 11:55:11;;;;;;;;;;;;;;;-142.75;62.92;76023.09;5035773;28;20615;-78
2021/07/05 11:57:43;;;;;;;;;;;;;;;-142.75;62.40;76062.47;5050868;28;19917;-80
2021/07/05 12:00:09;;;;;;;;;;;;;;;-142.75;62.81;76074.25;5048788;28;19921;-81
2021/07/05 12:02:34;;;;;;;;;;;;;;;-142.75;63.51;76048.69;5051883;28;20007;-80
2021/07/05 12:05:04;;;;;;;;;;;;;;;-142.75;64.24;76034.91;5035124;28;19917;-81
2021/07/05 12:07:29;;;;;;;;;;;;;;;-142.75;64.07;76029.00;5035652;28;19916;-80
2021/07/05 12:09:55;;;;;;;;;;;;;;;-142.75;62.01;76044.75;5035372;28;20397;-78
2021/07/05 12:12:21;;;;;;;;;;;;;;;-142.75;63.45;76030.97;5035218;28;19917;-79
2021/07/05 12:14:46;;;;;;;;;;;;;;;-142.75;63.84;76017.19;5035830;28;19967;-81
2021/07/05 12:17:12;;;;;;;;;;;;;;;-142.75;63.84;76032.94;5044872;28;20401;-82
2021/07/05 12:19:41;;;;;;;;;;;;;;;-142.75;64.01;76038.84;5052232;22;20345;-83
2021/07/05 12:22:11;;;;;;;;;;;;;;;-142.75;63.54;76086.06;5035246;28;19921;-80
2021/07/05 12:24:38;;;;;;;;;;;;;;;-142.75;64.91;76052.63;5035130;28;20359;-82
2021/07/05 12:27:04;;;;;;;;;;;;;;;-142.75;64.35;76060.50;5035826;28;19917;-84